Time;durP1;ratioP1;P1;durP2;ratioP2;P2;SDS_P1;SDS_P2;PMS_P1;PMS_P2;Temp;Humidity;BMP_temperature;BMP_pressure;BME280_temperature;BME280_humidity;BME280_pressure;Samples;Min_cycle;Max_cycle;Signal;HPM_P1;HPM_P2
2021/05/27 00:00:25;;;;;;;;;14.33;10.00;;;;;8.85;91.00;99598.88;3571287;40;10261;-48
2021/05/27 00:02:52;;;;;;;;;11.67;6.00;;;;;9.17;88.70;99601.53;3579172;40;10356;-48
2021/05/27 00:05:21;;;;;;;;;10.00;7.00;;;;;9.10;88.91;99598.31;3579157;40;10766;-52
2021/05/27 00:07:49;;;;;;;;;11.00;7.00;;;;;8.97;89.24;99591.94;3575736;40;10093;-52
2021/05/27 00:10:27;;;;;;;;;11.67;8.33;;;;;8.96;89.24;99596.44;3576286;39;10103;-51
2021/05/27 00:12:55;;;;;;;;;10.00;8.33;;;;;8.87;89.88;99598.75;3578606;40;10793;-47
2021/05/27 00:15:25;;;;;;;;;8.00;7.00;;;;;8.59;90.58;99597.63;3577027;40;10187;-49
2021/05/27 00:17:53;;;;;;;;;5.67;5.67;;;;;8.59;91.38;99594.94;3580505;40;10003;-49
2021/05/27 00:20:21;;;;;;;;;13.33;7.00;;;;;8.73;90.56;99592.34;3578043;40;10592;-50
2021/05/27 00:22:49;;;;;;;;;10.00;9.00;;;;;8.80;89.27;99595.56;3578201;40;10367;-49
2021/05/27 00:25:17;;;;;;;;;7.33;6.33;;;;;8.85;89.60;99595.31;3579130;40;10165;-49
2021/05/27 00:27:46;;;;;;;;;8.33;6.33;;;;;8.93;88.85;99596.63;3578048;40;10442;-50
2021/05/27 00:30:16;;;;;;;;;7.00;6.33;;;;;8.33;90.13;99591.84;3582427;40;10143;-50
2021/05/27 00:32:44;;;;;;;;;6.67;6.00;;;;;8.64;89.30;99584.84;3577471;40;10074;-51
2021/05/27 00:35:13;;;;;;;;;9.00;6.00;;;;;8.55;90.10;99591.56;3576798;40;9977;-48
2021/05/27 00:37:41;;;;;;;;;3.00;3.00;;;;;8.37;91.22;99587.19;3580434;40;10551;-49
2021/05/27 00:40:14;;;;;;;;;9.00;5.00;;;;;8.40;91.65;99586.19;3577003;40;10069;-51
2021/05/27 00:42:43;;;;;;;;;5.33;5.00;;;;;8.11;92.67;99586.78;3579192;40;10007;-50
2021/05/27 00:45:14;;;;;;;;;5.00;5.00;;;;;7.85;93.01;99589.97;3579882;40;9986;-50
2021/05/27 00:47:42;;;;;;;;;7.00;5.00;;;;;7.78;93.73;99588.53;3576454;40;9999;-51
2021/05/27 00:50:21;;;;;;;;;3.00;3.00;;;;;7.73;93.07;99587.91;3581587;40;9825;-51
2021/05/27 00:52:55;;;;;;;;;5.67;5.00;;;;;7.98;92.04;99583.03;3577156;40;10825;-49
2021/05/27 00:55:26;;;;;;;;;6.33;5.00;;;;;8.04;92.21;99590.72;3578361;40;9798;-50
2021/05/27 00:57:54;;;;;;;;;9.00;5.33;;;;;7.92;92.42;99583.34;3577900;40;10549;-48
2021/05/27 01:00:25;;;;;;;;;5.67;5.67;;;;;8.01;91.61;99579.34;3580150;40;9806;-50
2021/05/27 01:02:53;;;;;;;;;7.00;6.33;;;;;8.16;91.47;99581.16;3579937;40;9766;-48
2021/05/27 01:05:21;;;;;;;;;7.00;5.67;;;;;8.33;90.97;99582.94;3576957;40;10529;-49
2021/05/27 01:07:49;;;;;;;;;7.67;5.00;;;;;7.91;91.87;99585.16;3576733;40;9859;-52
2021/05/27 01:10:16;;;;;;;;;6.67;5.00;;;;;7.58;92.75;99592.22;3576352;40;10097;-48
2021/05/27 01:12:44;;;;;;;;;9.00;6.00;;;;;7.51;93.79;99591.69;3579041;40;9990;-51
2021/05/27 01:15:34;;;;;;;;;6.00;6.00;;;;;8.00;91.59;99588.28;3583852;40;9847;-49
2021/05/27 01:18:11;;;;;;;;;7.00;5.00;;;;;8.03;91.05;99591.69;3577067;40;10004;-51
2021/05/27 01:20:45;;;;;;;;;9.33;5.67;;;;;8.00;91.12;99589.13;3575952;40;9847;-48
2021/05/27 01:23:13;;;;;;;;;6.00;5.00;;;;;7.88;91.68;99589.81;3583350;40;9739;-49
2021/05/27 01:25:49;;;;;;;;;8.33;6.33;;;;;7.88;91.42;99587.97;3582916;40;9720;-51
2021/05/27 01:28:18;;;;;;;;;6.33;5.00;;;;;8.12;89.37;99593.84;3580551;40;10073;-50
2021/05/27 01:30:47;;;;;;;;;10.33;6.00;;;;;7.69;91.82;99584.53;3582115;40;10084;-49
2021/05/27 01:33:17;;;;;;;;;3.00;3.00;;;;;7.90;90.02;99586.09;3576604;40;10487;-49
2021/05/27 01:35:46;;;;;;;;;5.00;5.00;;;;;7.58;91.24;99577.09;3580142;40;9800;-52
2021/05/27 01:38:22;;;;;;;;;5.67;5.00;;;;;7.38;90.92;99579.91;3579699;40;10438;-49
2021/05/27 01:40:51;;;;;;;;;6.33;5.00;;;;;7.73;90.55;99587.91;3580743;40;10008;-52
2021/05/27 01:43:22;;;;;;;;;5.33;3.67;;;;;8.01;88.74;99582.88;3576820;40;9860;-48
2021/05/27 01:45:50;;;;;;;;;9.33;7.00;;;;;7.80;90.34;99587.53;3578449;40;9805;-50
2021/05/27 01:48:18;;;;;;;;;5.67;5.00;;;;;7.85;89.90;99580.13;3577227;40;9817;-50
2021/05/27 01:50:48;;;;;;;;;5.00;4.33;;;;;7.54;92.01;99578.16;3578915;40;9846;-51
2021/05/27 01:53:17;;;;;;;;;5.00;5.00;;;;;7.75;90.81;99586.03;3578172;40;9854;-50
2021/05/27 01:55:48;;;;;;;;;6.33;5.00;;;;;7.61;90.80;99587.59;3579970;40;9775;-49
2021/05/27 01:58:18;;;;;;;;;5.00;5.00;;;;;7.58;91.05;99582.44;3577156;40;9804;-51
2021/05/27 02:00:46;;;;;;;;;7.00;5.00;;;;;7.73;91.72;99582.56;3579377;40;9797;-53
2021/05/27 02:03:13;;;;;;;;;6.33;5.00;;;;;7.59;91.46;99576.13;3579863;40;10015;-50
2021/05/27 02:05:40;;;;;;;;;6.33;3.00;;;;;7.50;92.19;99575.72;3581514;40;10011;-49
2021/05/27 02:08:10;;;;;;;;;6.33;5.00;;;;;7.67;91.05;99581.94;3577634;40;9877;-48
2021/05/27 02:10:37;;;;;;;;;6.00;5.00;;;;;7.73;90.32;99579.91;3576042;40;9813;-52
2021/05/27 02:13:05;;;;;;;;;4.33;3.67;;;;;7.63;90.85;99580.34;3580177;40;9957;-52
2021/05/27 02:15:33;;;;;;;;;5.00;5.00;;;;;7.62;90.58;99570.63;3577177;40;9811;-49
2021/05/27 02:18:00;;;;;;;;;4.33;2.33;;;;;7.67;90.26;99565.06;3576359;40;9821;-51
2021/05/27 02:20:28;;;;;;;;;5.67;5.00;;;;;7.80;89.64;99560.78;3579157;40;9820;-50
2021/05/27 02:22:55;;;;;;;;;7.00;4.33;;;;;7.79;90.20;99568.88;3579641;40;9877;-53
2021/05/27 02:25:23;;;;;;;;;6.00;6.00;;;;;7.33;91.62;99563.22;3575401;40;9799;-51
2021/05/27 02:27:50;;;;;;;;;6.00;4.67;;;;;7.20;92.68;99571.00;3575897;40;10013;-51
2021/05/27 02:30:18;;;;;;;;;7.33;5.00;;;;;7.06;92.67;99562.78;3578974;40;10295;-51
2021/05/27 02:32:45;;;;;;;;;8.33;5.67;;;;;6.69;93.46;99562.78;3580399;40;9989;-48
2021/05/27 02:35:13;;;;;;;;;7.33;6.00;;;;;7.51;90.19;99562.31;3579474;40;10072;-50
2021/05/27 02:37:41;;;;;;;;;20.33;14.00;;;;;7.45;90.42;99568.81;3578489;40;10037;-48
2021/05/27 02:40:09;;;;;;;;;40.33;37.00;;;;;7.42;90.90;99560.09;3582338;40;10137;-53
2021/05/27 02:42:36;;;;;;;;;11.00;6.00;;;;;7.23;91.29;99555.66;3576266;40;10157;-52
2021/05/27 02:45:05;;;;;;;;;8.00;6.00;;;;;6.92;92.57;99561.66;3577678;40;10027;-49
2021/05/27 02:47:32;;;;;;;;;7.00;3.33;;;;;6.70;93.93;99551.16;3575867;40;9862;-48
2021/05/27 02:50:00;;;;;;;;;8.00;5.33;;;;;7.14;92.92;99558.81;3575793;40;9885;-49
2021/05/27 02:52:27;;;;;;;;;16.67;13.00;;;;;6.94;92.24;99549.09;3576547;40;10159;-47
2021/05/27 02:54:54;;;;;;;;;6.00;6.00;;;;;6.79;93.02;99558.75;3583063;40;9918;-51
2021/05/27 02:57:22;;;;;;;;;6.00;6.00;;;;;6.70;94.88;99550.31;3586184;40;9883;-52
2021/05/27 02:59:49;;;;;;;;;8.00;5.33;;;;;7.11;94.12;99555.41;3585866;40;9905;-52
2021/05/27 03:02:16;;;;;;;;;6.00;5.67;;;;;7.04;93.38;99555.72;3585967;40;9822;-53
2021/05/27 03:04:43;;;;;;;;;5.00;5.00;;;;;7.17;92.16;99549.78;3584632;40;9894;-51
2021/05/27 03:07:11;;;;;;;;;3.67;3.33;;;;;7.32;90.86;99564.16;3586165;40;10051;-50
2021/05/27 03:09:38;;;;;;;;;6.00;3.33;;;;;7.31;90.87;99557.09;3585509;40;9864;-51
2021/05/27 03:12:05;;;;;;;;;6.00;3.33;;;;;7.22;91.57;99553.94;3586086;40;9850;-51
2021/05/27 03:14:33;;;;;;;;;6.00;6.00;;;;;6.94;92.95;99558.91;3579094;40;9893;-53
2021/05/27 03:17:00;;;;;;;;;5.00;3.67;;;;;7.16;93.17;99564.94;3576290;40;9755;-49
2021/05/27 03:19:28;;;;;;;;;6.00;5.33;;;;;6.89;93.29;99566.28;3575401;40;10393;-50
2021/05/27 03:21:55;;;;;;;;;7.33;5.00;;;;;6.65;94.02;99574.53;3575994;40;10024;-51
2021/05/27 03:24:22;;;;;;;;;6.00;5.00;;;;;6.61;93.32;99572.94;3576209;40;9897;-53
2021/05/27 03:26:52;;;;;;;;;7.33;5.00;;;;;6.46;94.48;99574.53;3578040;40;9905;-51
2021/05/27 03:29:19;;;;;;;;;10.67;8.67;;;;;6.64;94.17;99572.81;3582311;40;9982;-52
2021/05/27 03:31:47;;;;;;;;;11.67;6.00;;;;;6.97;93.46;99574.78;3575507;40;10290;-51
2021/05/27 03:34:14;;;;;;;;;7.33;6.00;;;;;6.94;94.05;99570.44;3576916;40;9971;-50
2021/05/27 03:36:42;;;;;;;;;10.67;8.00;;;;;7.13;92.79;99569.56;3576109;40;10092;-51
2021/05/27 03:39:09;;;;;;;;;8.33;5.00;;;;;7.08;93.08;99563.56;3583540;40;9783;-50
2021/05/27 03:41:36;;;;;;;;;7.67;6.00;;;;;7.22;92.77;99569.97;3587165;40;9965;-51
2021/05/27 03:44:04;;;;;;;;;6.00;5.00;;;;;7.51;90.89;99575.66;3586556;40;9877;-51
2021/05/27 03:46:32;;;;;;;;;7.67;6.00;;;;;7.58;90.14;99571.75;3587010;40;9828;-53
2021/05/27 03:48:59;;;;;;;;;6.33;5.00;;;;;7.26;92.16;99581.34;3581695;40;9828;-52
2021/05/27 03:51:27;;;;;;;;;10.00;6.00;;;;;8.35;87.92;99584.59;3577120;40;10613;-52
2021/05/27 03:53:54;;;;;;;;;7.67;5.00;;;;;8.17;87.63;99584.72;3577090;40;10316;-53
2021/05/27 03:56:21;;;;;;;;;6.00;6.00;;;;;8.43;87.66;99588.72;3577317;40;10011;-50
2021/05/27 04:01:34;;;;;;;;;6.33;6.00;;;;;11.02;77.21;99592.03;3586538;40;10134;-52
2021/05/27 04:09:33;;;;;;;;;20.00;18.00;;;;;9.53;83.36;99589.59;3583809;40;10586;-51
2021/05/27 04:15:20;;;;;;;;;9.50;9.50;;;;;10.43;80.00;99581.50;3587232;40;10669;-51
2021/05/27 04:17:34;;;;;;;;;6.50;6.50;;;;;10.30;78.77;99585.91;3580793;40;10569;-49
2021/05/27 04:20:04;;;;;;;;;6.25;5.00;;;;;9.82;80.99;99587.88;3581956;40;14000;-49
2021/05/27 04:22:32;;;;;;;;;12.25;7.00;;;;;9.96;80.43;99584.38;3576552;40;14022;-52
2021/05/27 04:25:00;;;;;;;;;5.75;4.50;;;;;10.25;80.00;99583.44;3577701;40;13989;-53
2021/05/27 04:27:27;;;;;;;;;8.00;5.50;;;;;9.95;82.43;99586.19;3586637;40;13973;-49
2021/05/27 04:29:55;;;;;;;;;3.25;3.25;;;;;10.52;78.57;99585.41;3583716;40;13986;-49
2021/05/27 04:35:09;;;;;;;;;10.25;7.75;;;;;10.46;83.23;99602.75;3586397;40;13978;-51
2021/05/27 04:37:36;;;;;;;;;8.50;8.00;;;;;10.35;84.64;99599.00;3586659;40;13974;-49
2021/05/27 04:40:06;;;;;;;;;9.50;7.00;;;;;10.61;82.65;99600.06;3579420;40;14636;-51
2021/05/27 04:42:33;;;;;;;;;5.50;5.50;;;;;10.80;81.94;99599.78;3576914;40;13990;-52
2021/05/27 04:45:00;;;;;;;;;6.50;6.25;;;;;10.56;82.43;99600.38;3576994;40;14032;-49
2021/05/27 04:47:28;;;;;;;;;8.00;7.00;;;;;10.84;79.75;99602.16;3576385;40;13989;-50
2021/05/27 04:49:55;;;;;;;;;6.25;4.50;;;;;11.00;77.89;99602.03;3584318;40;13982;-49
2021/05/27 04:52:22;;;;;;;;;4.00;3.00;;;;;11.11;77.84;99612.97;3586483;40;14474;-52
2021/05/27 04:54:50;;;;;;;;;5.50;3.50;;;;;11.74;74.56;99611.47;3585662;40;14232;-51
2021/05/27 04:57:17;;;;;;;;;4.25;3.50;;;;;12.04;72.71;99618.44;3586432;40;14565;-51
2021/05/27 04:59:44;;;;;;;;;5.00;3.75;;;;;11.76;73.22;99616.75;3578219;40;14545;-51
2021/05/27 05:02:11;;;;;;;;;4.50;4.50;;;;;11.98;73.87;99619.75;3579067;40;14566;-48
2021/05/27 05:04:39;;;;;;;;;1.00;1.00;;;;;12.14;70.57;99619.53;3583328;40;14179;-49
2021/05/27 05:07:06;;;;;;;;;3.75;3.75;;;;;12.32;71.34;99617.38;3577282;40;14447;-50
2021/05/27 05:09:34;;;;;;;;;3.00;3.00;;;;;12.39;72.74;99618.69;3586766;40;14272;-50
2021/05/27 05:12:01;;;;;;;;;5.75;3.50;;;;;12.55;72.75;99618.47;3586614;40;13963;-49
2021/05/27 05:14:29;;;;;;;;;5.00;5.00;;;;;13.15;70.34;99619.53;3586627;40;14010;-53
2021/05/27 05:16:56;;;;;;;;;3.00;3.00;;;;;12.94;70.25;99625.53;3586614;40;14013;-52
2021/05/27 05:19:23;;;;;;;;;4.50;3.00;;;;;13.27;68.15;99617.81;3586384;40;13982;-49
2021/05/27 05:21:51;;;;;;;;;3.25;3.25;;;;;13.27;69.53;99617.81;3586871;40;13995;-48
2021/05/27 05:24:18;;;;;;;;;3.00;3.00;;;;;13.61;68.02;99626.94;3586582;40;14062;-48
2021/05/27 05:26:45;;;;;;;;;7.00;4.00;;;;;13.53;67.78;99615.88;3586642;40;14001;-51
2021/05/27 05:29:12;;;;;;;;;7.00;4.00;;;;;13.84;68.94;99617.97;3582335;40;14017;-49
2021/05/27 05:31:40;;;;;;;;;4.25;4.00;;;;;13.95;68.63;99616.28;3576448;40;14004;-53
2021/05/27 05:34:11;;;;;;;;;3.75;3.75;;;;;14.17;67.36;99613.66;3576845;40;14073;-47
2021/05/27 05:36:39;;;;;;;;;6.00;6.00;;;;;14.34;70.35;99612.34;3582573;40;14190;-52
2021/05/27 05:39:07;;;;;;;;;6.00;4.25;;;;;14.18;70.41;99619.91;3586604;40;14028;-50
2021/05/27 05:41:34;;;;;;;;;3.00;3.00;;;;;14.76;69.16;99628.88;3582789;40;14540;-50
2021/05/27 05:44:02;;;;;;;;;3.75;3.75;;;;;14.20;69.26;99628.75;3576453;40;14204;-51
2021/05/27 05:46:30;;;;;;;;;3.75;3.75;;;;;14.23;68.40;99633.94;3577323;40;13956;-50
2021/05/27 05:48:57;;;;;;;;;7.25;5.00;;;;;13.98;70.01;99630.44;3585916;40;14215;-48
2021/05/27 05:51:24;;;;;;;;;5.50;5.00;;;;;14.25;71.09;99630.13;3577153;40;13986;-50
2021/05/27 05:53:51;;;;;;;;;4.75;3.75;;;;;13.99;71.43;99626.75;3576091;40;14177;-50
2021/05/27 05:56:19;;;;;;;;;3.00;2.75;;;;;14.52;67.87;99623.53;3575709;40;14070;-52
2021/05/27 05:58:46;;;;;;;;;4.75;4.00;;;;;14.44;66.96;99617.88;3576115;40;13978;-51
2021/05/27 06:01:14;;;;;;;;;4.75;4.00;;;;;14.90;65.79;99633.16;3583346;40;14002;-48
2021/05/27 06:03:41;;;;;;;;;4.25;3.00;;;;;15.42;63.25;99623.50;3583203;40;14013;-49
2021/05/27 06:06:11;;;;;;;;;3.50;3.50;;;;;15.42;64.46;99623.50;3580175;40;14540;-49
2021/05/27 06:08:38;;;;;;;;;4.00;3.00;;;;;15.47;64.87;99625.84;3583269;40;14179;-53
2021/05/27 06:11:06;;;;;;;;;2.00;2.00;;;;;16.03;63.06;99622.94;3576888;40;13974;-52
2021/05/27 06:13:33;;;;;;;;;4.50;3.00;;;;;16.22;62.03;99622.22;3575472;40;13941;-54
2021/05/27 06:16:01;;;;;;;;;4.00;3.00;;;;;16.62;60.36;99627.75;3583434;40;13928;-52
2021/05/27 06:18:29;;;;;;;;;2.00;2.00;;;;;16.92;58.84;99626.06;3575977;40;13927;-49
2021/05/27 06:20:56;;;;;;;;;2.00;2.00;;;;;17.15;59.52;99634.00;3575708;40;13997;-52
2021/05/27 06:23:24;;;;;;;;;5.25;3.00;;;;;16.86;58.49;99632.88;3575573;40;14040;-52
2021/05/27 06:25:52;;;;;;;;;2.25;2.00;;;;;17.72;55.16;99632.38;3575711;40;13427;-53
2021/05/27 06:28:19;;;;;;;;;2.00;2.00;;;;;18.10;56.23;99637.00;3575790;40;13191;-51
2021/05/27 06:30:47;;;;;;;;;3.50;2.00;;;;;18.41;53.43;99623.25;3584495;40;13009;-51
2021/05/27 06:33:14;;;;;;;;;6.00;3.00;;;;;18.42;53.08;99622.22;3584927;40;12734;-53
2021/05/27 06:35:41;;;;;;;;;4.00;2.50;;;;;18.85;53.22;99629.00;3585102;40;13054;-56
2021/05/27 06:38:09;;;;;;;;;2.50;2.50;;;;;18.94;55.12;99617.25;3585037;40;12205;-53
2021/05/27 06:40:36;;;;;;;;;2.00;1.00;;;;;19.05;52.56;99619.75;3585037;40;12372;-55
2021/05/27 06:43:03;;;;;;;;;4.25;2.00;;;;;19.36;49.74;99622.19;3585242;40;11812;-55
2021/05/27 06:45:31;;;;;;;;;2.75;1.00;;;;;20.00;48.76;99630.34;3583346;40;11867;-56
2021/05/27 06:47:58;;;;;;;;;2.00;2.00;;;;;20.07;50.80;99628.72;3579701;40;11434;-53
2021/05/27 06:50:32;;;;;;;;;3.00;1.25;;;;;20.24;49.61;99632.44;3584082;40;12045;-56
2021/05/27 06:53:12;;;;;;;;;16.00;16.00;;;;;20.32;51.06;99630.63;3586387;40;11528;-57
2021/05/27 06:55:41;;;;;;;;;3.00;3.00;;;;;20.22;51.28;99624.44;3586338;40;12673;-56
2021/05/27 06:58:10;;;;;;;;;2.50;1.75;;;;;19.57;49.99;99623.78;3586128;40;11311;-56
2021/05/27 07:00:39;;;;;;;;;2.75;2.00;;;;;20.33;50.48;99626.06;3586041;40;11512;-54
2021/05/27 07:03:08;;;;;;;;;2.00;2.00;;;;;20.17;50.92;99622.19;3585238;40;12391;-56
2021/05/27 07:05:36;;;;;;;;;1.00;1.00;;;;;20.79;49.37;99622.09;3584898;40;11169;-57
2021/05/27 07:08:06;;;;;;;;;1.00;1.00;;;;;20.60;48.45;99627.81;3585559;40;11100;-55
2021/05/27 07:10:35;;;;;;;;;1.00;0.00;;;;;21.40;45.76;99625.66;3586044;40;10952;-57
2021/05/27 07:13:09;;;;;;;;;4.00;1.00;;;;;20.94;46.09;99625.09;3586166;40;10619;-55
2021/05/27 07:15:38;;;;;;;;;1.00;1.00;;;;;21.21;42.95;99637.69;3587203;40;10509;-58
2021/05/27 07:18:06;;;;;;;;;1.00;1.00;;;;;21.77;43.30;99638.06;3586774;40;10215;-57
2021/05/27 07:20:34;;;;;;;;;3.00;1.00;;;;;21.51;44.07;99638.16;3587179;40;10340;-57
2021/05/27 07:23:02;;;;;;;;;1.33;1.33;;;;;21.09;45.27;99638.13;3586619;40;10328;-58
2021/05/27 07:25:30;;;;;;;;;3.67;1.00;;;;;20.65;45.70;99628.19;3587471;40;9954;-55
2021/05/27 07:27:58;;;;;;;;;2.00;2.00;;;;;21.72;43.38;99629.50;3586908;40;10052;-57
2021/05/27 07:30:27;;;;;;;;;2.00;2.00;;;;;22.14;46.07;99626.66;3579312;40;9949;-55
2021/05/27 07:32:58;;;;;;;;;2.00;1.00;;;;;22.27;41.89;99634.38;3577477;40;10842;-57
2021/05/27 07:35:28;;;;;;;;;1.00;1.00;;;;;22.28;41.76;99624.31;3577570;40;10099;-55
2021/05/27 07:37:57;;;;;;;;;4.00;1.33;;;;;22.64;41.39;99626.66;3576981;40;10415;-56
2021/05/27 07:40:26;;;;;;;;;2.00;0.75;;;;;22.94;41.96;99620.44;3576551;40;9802;-56
2021/05/27 07:42:54;;;;;;;;;1.00;1.00;;;;;22.67;41.97;99627.16;3577321;40;9822;-57
2021/05/27 07:45:21;;;;;;;;;1.00;1.00;;;;;22.19;42.00;99620.69;3577445;40;9834;-56
2021/05/27 07:47:48;;;;;;;;;0.67;0.67;;;;;20.97;41.26;99613.00;3577364;40;9790;-56
2021/05/27 07:50:20;;;;;;;;;3.33;0.67;;;;;22.56;39.37;99614.72;3577304;40;9798;-56
2021/05/27 07:52:52;;;;;;;;;2.00;0.33;;;;;22.53;40.49;99615.03;3577111;40;9821;-56
2021/05/27 07:55:20;;;;;;;;;0.67;0.67;;;;;21.79;41.12;99618.75;3577351;40;9808;-56
2021/05/27 07:57:47;;;;;;;;;1.67;1.00;;;;;22.25;38.44;99621.88;3576993;40;9792;-55
2021/05/27 08:00:15;;;;;;;;;0.33;0.33;;;;;22.41;37.69;99619.16;3577326;40;9953;-56
2021/05/27 08:02:43;;;;;;;;;0.67;0.67;;;;;22.25;38.91;99617.31;3577274;40;10010;-56
2021/05/27 08:05:13;;;;;;;;;0.67;0.67;;;;;22.04;38.69;99614.19;3576182;40;9749;-56
2021/05/27 08:07:41;;;;;;;;;0.67;0.33;;;;;22.06;38.95;99612.97;3577114;40;9993;-55
2021/05/27 08:10:12;;;;;;;;;1.00;1.00;;;;;22.53;37.98;99616.91;3577291;40;9811;-57
2021/05/27 08:12:41;;;;;;;;;0.75;0.75;;;;;22.64;39.77;99621.16;3577137;40;9785;-59
2021/05/27 08:15:09;;;;;;;;;0.00;0.00;;;;;23.23;38.94;99618.97;3576848;40;9810;-57
2021/05/27 08:17:37;;;;;;;;;0.75;0.75;;;;;23.18;39.43;99611.28;3577083;40;9805;-57
2021/05/27 08:20:08;;;;;;;;;1.00;1.00;;;;;23.40;39.88;99611.53;3577378;40;9785;-55
2021/05/27 08:22:36;;;;;;;;;1.00;1.00;;;;;22.97;38.60;99613.78;3575247;40;9905;-55
2021/05/27 08:25:05;;;;;;;;;0.75;0.75;;;;;23.08;37.13;99612.53;3576659;40;9784;-55
2021/05/27 08:27:33;;;;;;;;;0.50;0.50;;;;;23.31;39.48;99612.63;3576741;40;9789;-57
2021/05/27 08:30:01;;;;;;;;;1.00;1.00;;;;;22.65;39.50;99609.22;3580811;40;10349;-57
2021/05/27 08:32:28;;;;;;;;;0.00;0.00;;;;;22.10;39.22;99610.75;3576840;40;9802;-57
2021/05/27 08:34:56;;;;;;;;;0.75;0.75;;;;;22.72;38.37;99607.47;3576811;40;9778;-56
2021/05/27 08:37:24;;;;;;;;;1.00;1.00;;;;;22.95;39.09;99602.94;3576604;40;10012;-57
2021/05/27 08:39:51;;;;;;;;;2.00;0.00;;;;;22.77;38.45;99605.06;3577024;40;10480;-55
2021/05/27 08:42:21;;;;;;;;;0.67;0.67;;;;;22.54;38.71;99613.16;3576925;40;9807;-54
2021/05/27 08:44:50;;;;;;;;;0.00;0.00;;;;;23.48;37.41;99608.75;3577079;40;9818;-57
2021/05/27 08:47:18;;;;;;;;;0.50;0.50;;;;;22.82;37.84;99610.00;3576665;40;10349;-54
2021/05/27 08:49:48;;;;;;;;;0.25;0.25;;;;;23.10;38.20;99613.22;3577015;40;9799;-55
2021/05/27 08:52:16;;;;;;;;;0.75;0.75;;;;;23.34;38.73;99615.00;3576643;40;9787;-57
2021/05/27 08:54:44;;;;;;;;;2.00;1.00;;;;;23.08;37.88;99604.31;3576514;40;9774;-55
2021/05/27 08:57:12;;;;;;;;;1.00;1.00;;;;;22.81;36.58;99602.84;3576997;40;9811;-54
2021/05/27 08:59:39;;;;;;;;;1.50;1.00;;;;;22.96;39.20;99607.44;3577016;40;9803;-57
2021/05/27 09:02:11;;;;;;;;;0.50;0.50;;;;;23.09;39.02;99603.28;3576912;40;9918;-57
2021/05/27 09:04:40;;;;;;;;;0.00;0.00;;;;;23.53;38.18;99608.22;3576408;40;9811;-56
2021/05/27 09:07:11;;;;;;;;;0.50;0.50;;;;;22.57;39.23;99590.94;3577037;40;9920;-54
2021/05/27 09:09:57;;;;;;;;;1.33;0.67;;;;;22.74;37.10;99598.06;3576400;40;9803;-55
2021/05/27 09:12:29;;;;;;;;;3.00;1.00;;;;;23.33;36.48;99603.19;3575748;40;9802;-56
2021/05/27 09:15:00;;;;;;;;;0.75;0.75;;;;;23.16;35.61;99605.13;3576209;40;9985;-56
2021/05/27 09:17:43;;;;;;;;;0.75;0.75;;;;;23.11;35.48;99601.22;3576532;40;9801;-54
2021/05/27 09:20:12;;;;;;;;;0.67;0.67;;;;;23.33;35.39;99602.31;3575610;40;9992;-57
2021/05/27 09:22:42;;;;;;;;;1.00;1.00;;;;;23.33;36.38;99597.72;3575766;40;9986;-57
2021/05/27 09:25:32;;;;;;;;;1.75;1.00;;;;;23.61;35.39;99600.78;3576871;40;9810;-55
2021/05/27 09:28:00;;;;;;;;;1.00;1.00;;;;;24.10;35.48;99594.13;3576660;40;9999;-57
2021/05/27 09:30:27;;;;;;;;;0.50;0.50;;;;;23.45;35.26;99599.00;3584844;40;9783;-55
2021/05/27 09:33:11;;;;;;;;;1.00;1.00;;;;;23.02;35.35;99591.34;3585632;40;9772;-51
2021/05/27 09:35:39;;;;;;;;;1.25;1.00;;;;;23.47;35.89;99597.97;3586313;40;9768;-54
2021/05/27 09:38:07;;;;;;;;;3.25;1.75;;;;;23.07;38.14;99594.41;3586293;40;10036;-57
2021/05/27 09:40:45;;;;;;;;;0.75;0.00;;;;;23.48;37.16;99594.19;3586704;40;9800;-54
2021/05/27 09:43:23;;;;;;;;;0.25;0.00;;;;;23.40;36.08;99593.19;3586458;40;9819;-58
2021/05/27 09:46:07;;;;;;;;;2.00;1.00;;;;;23.26;37.08;99591.22;3586875;40;9792;-57
2021/05/27 09:48:36;;;;;;;;;1.00;1.00;;;;;22.97;37.01;99600.09;3586360;40;9796;-60
2021/05/27 09:51:04;;;;;;;;;3.00;1.00;;;;;23.74;34.96;99591.16;3586417;40;10025;-61
2021/05/27 09:53:34;;;;;;;;;1.25;1.25;;;;;23.74;36.76;99597.47;3586635;40;9752;-59
2021/05/27 09:56:06;;;;;;;;;2.75;1.00;;;;;23.58;35.85;99587.44;3586592;40;9898;-58
2021/05/27 09:58:33;;;;;;;;;4.00;1.00;;;;;23.43;36.33;99591.97;3586479;40;10374;-58
2021/05/27 10:01:08;;;;;;;;;1.75;1.00;;;;;23.58;37.14;99581.13;3586726;40;9708;-58
2021/05/27 10:03:40;;;;;;;;;1.00;1.00;;;;;23.62;36.94;99585.22;3586492;40;9798;-58
2021/05/27 10:06:10;;;;;;;;;0.00;0.00;;;;;23.18;37.99;99583.06;3586120;40;10214;-58
2021/05/27 10:08:57;;;;;;;;;1.00;1.00;;;;;23.65;36.72;99584.84;3585673;40;9965;-60
2021/05/27 10:11:26;;;;;;;;;2.00;2.00;;;;;24.22;36.15;99586.31;3578203;40;9838;-58
2021/05/27 10:13:54;;;;;;;;;1.25;1.00;;;;;24.50;38.40;99587.44;3575261;40;9836;-58
2021/05/27 10:16:23;;;;;;;;;3.00;1.25;;;;;24.39;35.26;99582.38;3575150;40;9957;-59
2021/05/27 10:18:54;;;;;;;;;1.00;1.00;;;;;24.21;36.05;99584.63;3576618;40;10252;-59
2021/05/27 10:21:24;;;;;;;;;1.50;1.00;;;;;23.66;35.38;99587.38;3576429;40;9952;-58
2021/05/27 10:23:55;;;;;;;;;2.00;2.00;;;;;24.23;35.71;99583.38;3575951;40;9843;-58
2021/05/27 10:26:23;;;;;;;;;2.00;1.50;;;;;24.04;35.72;99584.75;3576515;40;9754;-58
2021/05/27 10:29:11;;;;;;;;;2.50;1.00;;;;;24.51;34.78;99575.44;3578894;40;10120;-58
2021/05/27 10:31:46;;;;;;;;;1.00;1.00;;;;;23.32;35.73;99573.22;3585849;40;9822;-58
2021/05/27 10:34:52;;;;;;;;;3.00;1.50;;;;;23.67;35.50;99580.00;3585426;40;10341;-58
2021/05/27 10:37:34;;;;;;;;;1.25;1.25;;;;;23.95;36.10;99569.38;3577222;40;9817;-60
2021/05/27 10:40:29;;;;;;;;;2.25;2.25;;;;;24.22;35.74;99576.19;3586357;40;9708;-58
2021/05/27 10:43:10;;;;;;;;;1.00;1.00;;;;;24.98;34.86;99581.59;3583958;40;9826;-59
2021/05/27 10:46:04;;;;;;;;;0.25;0.25;;;;;24.20;35.00;99578.28;3579481;40;9800;-59
2021/05/27 10:48:40;;;;;;;;;1.00;1.00;;;;;23.78;34.74;99574.16;3584131;40;10003;-59
2021/05/27 10:53:42;;;;;;;;;2.25;2.25;;;;;25.33;36.08;99569.00;3576789;40;9813;-59
2021/05/27 10:56:15;;;;;;;;;1.00;1.00;;;;;24.97;36.20;99571.66;3583496;40;10299;-60
2021/05/27 10:58:54;;;;;;;;;3.00;2.00;;;;;24.57;35.39;99568.34;3585815;40;9997;-59
2021/05/27 11:01:36;;;;;;;;;2.00;1.00;;;;;23.67;35.36;99555.34;3585689;40;9784;-59
2021/05/27 11:04:28;;;;;;;;;2.00;2.00;;;;;23.28;38.51;99558.19;3577181;40;9832;-58
2021/05/27 11:07:23;;;;;;;;;2.00;2.00;;;;;23.69;36.20;99546.94;3576190;40;9817;-59
2021/05/27 11:09:53;;;;;;;;;1.00;1.00;;;;;24.92;36.31;99554.91;3575871;40;9918;-59
2021/05/27 11:12:24;;;;;;;;;4.00;2.00;;;;;24.31;36.49;99553.13;3576005;40;9813;-59
2021/05/27 11:15:00;;;;;;;;;3.00;3.00;;;;;23.49;37.23;99549.31;3581197;40;9879;-58
2021/05/27 11:17:28;;;;;;;;;3.75;2.75;;;;;23.18;37.59;99544.69;3585788;40;9962;-58
2021/05/27 11:25:19;;;;;;;;;2.67;2.67;;;;;23.45;40.59;99549.66;3585167;40;9813;-58
2021/05/27 11:27:53;;;;;;;;;2.00;2.00;;;;;23.51;38.95;99539.00;3585303;40;9768;-59
2021/05/27 11:30:30;;;;;;;;;4.33;3.00;;;;;24.05;38.74;99544.47;3577549;40;10002;-58
2021/05/27 11:32:59;;;;;;;;;4.25;2.25;;;;;23.14;39.85;99537.88;3575609;40;9817;-58
2021/05/27 11:35:41;;;;;;;;;2.00;2.00;;;;;22.93;39.69;99542.06;3577161;40;9780;-58
2021/05/27 11:38:33;;;;;;;;;2.00;2.00;;;;;22.91;40.66;99538.63;3583521;40;9789;-58
2021/05/27 11:41:18;;;;;;;;;2.00;2.00;;;;;22.40;40.71;99529.88;3582570;40;10304;-58
2021/05/27 11:43:51;;;;;;;;;1.67;1.67;;;;;22.57;42.14;99528.84;3575306;40;9800;-58
2021/05/27 11:46:23;;;;;;;;;5.67;2.67;;;;;22.85;42.18;99517.41;3575690;40;10102;-58
2021/05/27 11:51:35;;;;;;;;;5.33;3.00;;;;;22.49;43.09;99519.81;3585131;40;10226;-58
2021/05/27 11:54:07;;;;;;;;;3.33;2.00;;;;;22.36;43.89;99514.88;3585876;40;10247;-57
2021/05/27 11:56:50;;;;;;;;;3.00;3.00;;;;;22.27;40.97;99518.63;3582577;40;9935;-60
2021/05/27 11:59:17;;;;;;;;;3.00;2.00;;;;;22.31;41.97;99514.53;3586857;40;10214;-58
2021/05/27 12:01:54;;;;;;;;;2.67;2.67;;;;;22.34;41.70;99508.72;3582078;40;10788;-58
2021/05/27 12:04:29;;;;;;;;;2.00;2.00;;;;;22.50;41.49;99508.66;3577179;40;10202;-59
2021/05/27 12:07:12;;;;;;;;;4.75;2.00;;;;;22.20;42.58;99509.44;3584083;40;10683;-58
2021/05/27 12:09:48;;;;;;;;;2.00;2.00;;;;;22.11;43.11;99503.94;3586200;40;10592;-58
2021/05/27 12:12:19;;;;;;;;;2.00;2.00;;;;;22.12;44.60;99502.06;3580861;40;10734;-58
2021/05/27 12:14:57;;;;;;;;;3.00;2.25;;;;;22.22;42.58;99501.88;3580405;40;10332;-58
2021/05/27 12:17:38;;;;;;;;;3.00;2.00;;;;;22.05;42.39;99501.91;3586904;40;10422;-58